x

Ilm2 - 5 Miles Se Of Wrightsville Beach, Nc (41038) Weather Station

3:00 - Fri 28th Nov 2014 All times are EST. -5 hours from GMT.

  • Wind
    4mph, 7mph gusts
  • Sea Temp 58°f
  • Aire Temp 47°f
  • Sea Pressure 1025.4mb
  • Ilm2 - 5 Miles Se Of Wrightsville Beach, Nc
  • Ilm2 - 5 Miles Se Of Wrightsville Beach, Nc

More Historic Weather Station data

Upgrade to MSW Pro to gain access to the past 30 days of data for over 8000 Wavebouys and Weather Stations around the globe.

Join Pro

Comparision Forecast

View Surf forecast
   
vie 11/28 3:00 4 7 mph 1025.4mb 58f 47f
2:00 7 9 mph 1025.8mb 58f 46f
1:00 11 13 mph 1026.4mb 58f 45f
12:00 13 18 mph 1026.7mb 58f 43f
11:00 22 25 mph 1027.3mb 58f 41f
10:00 22 27 mph 1027.4mb 58f 41f
9:00 22 27 mph 1027.1mb 58f 40f
8:00 25 29 mph 1026.5mb 58f 38f
7:00 22 27 mph 1026.3mb 58f 37f
6:00 25 31 mph 1025.6mb 58f 37f
5:00 22 27 mph 1025.1mb 58f 37f
4:00 22 29 mph 1024.8mb 58f 39f
3:00 18 22 mph 1024.9mb 58f 39f
2:00 18 22 mph 1024.3mb 58f 41f
1:00 18 22 mph 1023.5mb 58f 41f
12:00 22 27 mph 1023.3mb 58f 42f
jue 11/27 11:00 16 20 mph 1023.3mb 59f 43f
10:00 18 22 mph 1022.8mb 59f 45f
9:00 18 22 mph 1022.6mb 59f 46f
8:00 20 25 mph 1021.8mb 59f 46f
7:00 20 27 mph 1021.2mb 59f 46f
6:00 18 22 mph 1020.2mb 59f 47f
5:00 25 31 mph 1019mb 59f 48f
4:00 25 31 mph 1016.6mb 59f 50f
3:00 27 31 mph 1016mb 59f 53f
2:00 22 27 mph 1015.3mb 59f 54f
1:00 18 22 mph 1015.4mb 59f 54f
12:00 13 18 mph 1015.9mb 59f 52f
11:00 18 22 mph 1016.4mb 59f 51f
10:00 22 27 mph 1016.5mb 59f 51f
9:00 29 31 mph 1015.7mb 59f 51f
8:00 16 20 mph 1017.1mb 59f 54f
7:00 13 18 mph 1016.8mb 59f 52f
6:00 13 16 mph 1017.3mb 59f 52f
5:00 11 13 mph 1017.4mb 59f 50f
4:00 4 7 mph 1018.4mb 59f 48f
3:00 4 7 mph 1018.7mb 59f 46f
2:00  -  2 mph 1019.1mb 59f 46f
1:00 2
mph
1018.5mb 59f 45f
12:00 7 9 mph 1018.9mb 59f 46f
mié 11/26 11:00 9 11 mph 1019.4mb 59f 46f
10:00 13 16 mph 1018.3mb 59f 45f
9:00 13 18 mph 1017.9mb 59f 47f
8:00 18 22 mph 1017.7mb 59f 48f
7:00 20 25 mph 1016.5mb 59f 48f
6:00 18 22 mph 1015.8mb 59f 49f
5:00 20 25 mph 1014.4mb 59f 49f
4:00 25 29 mph 1013.1mb 59f 49f
3:00 20 25 mph 1012.2mb 59f 49f
2:00 22 27 mph 1012.1mb 59f 48f
1:00 20 25 mph 1010.8mb 59f 46f
12:00 22 27 mph 1009.2mb 59f 46f
11:00 29 34 mph 1009mb 59f 47f
10:00 27 36 mph 1008.7mb 59f 51f
9:00 13 16 mph 1005.5mb 59f 60f
8:00 16 20 mph 1005.3mb 59f 62f
7:00 9 13 mph 1005.9mb 59f 61f
6:00 13 16 mph 1006.5mb 59f 62f
5:00 11 13 mph 1006.6mb 59f 62f
4:00 11 13 mph 1007.6mb 59f 62f
3:00 7 11 mph 1008.5mb 59f 62f
2:00 11 16 mph 1009.6mb 59f 61f
1:00 13 18 mph 1011.4mb 59f 59f
12:00 20 27 mph 1013.3mb 59f 59f
mar 11/25 11:00 13 16 mph 1015mb 59f 58f
10:00 9
mph
1016.5mb 59f 58f
9:00 7
mph
1017.3mb 59f 58f
8:00 9 11 mph 1017.9mb 59f 59f
7:00 4 7 mph 1017.6mb 59f 58f
6:00 2 4 mph 1016.6mb 59f 58f
5:00 4
mph
1016.1mb 59f 58f
4:00 7
mph
1015.9mb 59f 58f
3:00 9
mph
1015.4mb 59f 58f
2:00 2 4 mph 1015.9mb 59f 60f
1:00 9 11 mph 1016.3mb 59f 61f
12:00 9 11 mph 1016.5mb 60f 62f
11:00 7 9 mph 1017.3mb 59f 60f
10:00 4 7 mph 1018.1mb 59f 59f
9:00 7 9 mph 1017.4mb 59f 61f
8:00 2 4 mph 1016.6mb 59f 58f
7:00 7 9 mph 1015.8mb 59f 58f
6:00 7 9 mph 1015.3mb 59f 58f
5:00 7
mph
1014.6mb 59f 58f
4:00 4 7 mph 1013.8mb 59f 59f
3:00 7 9 mph 1015.4mb 59f 59f
2:00 7 11 mph 1015.1mb 59f 59f
1:00 9 11 mph 1014.6mb 59f 59f
12:00 9 11 mph 1014.5mb 59f 58f
lun 11/24 11:00 9 11 mph 1013.8mb 59f 59f
10:00 9 11 mph 1014.4mb 59f 59f